Cox Field Paris US
ICAO: KPRX
IATA: PRX
Category: Medium
Scheduled Services: No

Elevation: 547 ft
TransAlt. 18000 ft.

Airport Communications:
AWOS 3:119.675
FORT WORTH CNTR:123.925
FORT WORTH RDO:122.25
CTAF/UNICOM:122.975

KPRX Zoom In..

If you have problems with the map follow the link
https://www.worldairports.se/pages/airport.php?
ICAO=KPRX

Runways:

(A) RW 03 length 4624 ft width 150 ft
---- / hdg 33

(B) RW 14 length 4624 ft width 150 ft
---- / hdg 137

(C) RW 17 length 6002 ft width 100 ft
---- / hdg 175

(D) RW 21 length 4624 ft width 150 ft
---- / hdg 213

(E) RW 32 length 4624 ft width 150 ft
---- / hdg 317

(F) RW 35 length 6002 ft width 100 ft
---- / hdg 355

Location; KPRX
Day. 21 / Time. 05.56 Zulu
* Altimeter: 30.31
* Temperature: 11° c. 51.8°f.
* Wind from: 350° Speed 05 kn.
Dewpoint: 09° c.
Visibility: 10 Statute Miles.
Clouds: Clear (automated report).

KPRX 210556Z AUTO 35005KT 10SM CLR 11/09 A3031 RMK AO2 SLP279 60000 T01110089 10161 20111 402280111 51002


Wind From 350°
Speed 05 kn.

 
 
jpsmedia.com for Web Design worldairports.se 2018   terms of use